createdAt,value
2018-09-16T08:40:55.055Z,79.30
2018-09-16T08:43:24.184Z,79.17
2018-09-16T08:45:55.544Z,78.88
2018-09-16T08:48:24.782Z,78.58
2018-09-16T08:50:58.648Z,77.57
2018-09-16T08:53:27.854Z,78.34
2018-09-16T08:55:58.968Z,78.55
2018-09-16T08:58:30.379Z,78.46
2018-09-16T09:00:59.436Z,77.77
2018-09-16T09:03:28.625Z,77.82
2018-09-16T09:05:58.308Z,77.37
2018-09-16T09:08:27.675Z,78.28
2018-09-16T09:10:57.241Z,77.30
2018-09-16T09:13:30.714Z,76.13
2018-09-16T09:16:00.301Z,76.66
2018-09-16T09:18:29.590Z,76.45
2018-09-16T09:20:58.768Z,75.04
2018-09-16T09:23:28.353Z,75.55
2018-09-16T09:25:57.856Z,74.56
2018-09-16T09:28:27.807Z,74.70
2018-09-16T09:30:56.962Z,72.06
2018-09-16T09:33:26.179Z,74.00
2018-09-16T09:35:55.364Z,72.37
2018-09-16T09:38:25.308Z,72.74
2018-09-16T09:40:54.758Z,71.71
2018-09-16T09:43:24.056Z,70.36
2018-09-16T09:45:53.278Z,68.16
2018-09-16T09:48:22.514Z,68.35
2018-09-16T09:50:51.826Z,66.00
2018-09-16T09:53:21.107Z,64.64
2018-09-16T09:55:50.251Z,66.71
2018-09-16T09:58:19.451Z,65.63
2018-09-16T10:00:52.162Z,64.55
2018-09-16T10:03:23.864Z,65.70
2018-09-16T10:05:55.795Z,65.07
2018-09-16T10:08:26.654Z,65.44
2018-09-16T10:10:56.237Z,63.72
2018-09-16T10:13:25.411Z,65.70
2018-09-16T10:15:54.672Z,63.18
2018-09-16T10:18:25.787Z,59.63
2018-09-16T10:20:57.300Z,61.64
2018-09-16T10:23:26.542Z,60.53
2018-09-16T10:25:55.805Z,61.38
2018-09-16T10:28:25.000Z,60.29
2018-09-16T10:30:54.216Z,59.13
2018-09-16T10:33:23.534Z,60.56
2018-09-16T10:35:53.017Z,58.76
2018-09-16T10:38:22.704Z,59.06
2018-09-16T10:40:52.390Z,59.23
2018-09-16T10:43:21.645Z,58.63
2018-09-16T10:45:50.824Z,59.22
2018-09-16T10:48:20.111Z,58.62
2018-09-16T10:50:51.533Z,60.69
2018-09-16T10:53:28.993Z,58.94
2018-09-16T10:55:58.213Z,59.10
2018-09-16T10:58:27.519Z,59.22
2018-09-16T11:00:56.799Z,58.17
2018-09-16T11:03:26.090Z,58.04
2018-09-16T11:05:55.301Z,56.35
2018-09-16T11:08:24.485Z,57.52
2018-09-16T11:10:54.096Z,57.61
2018-09-16T11:13:23.250Z,58.04
2018-09-16T11:15:52.577Z,58.26
2018-09-16T11:18:23.591Z,58.42
2018-09-16T11:20:53.630Z,57.74
2018-09-16T11:23:24.794Z,57.20
2018-09-16T11:25:53.958Z,55.05
2018-09-16T11:28:23.910Z,57.43
2018-09-16T11:30:56.120Z,57.68
2018-09-16T11:33:25.418Z,55.55
2018-09-16T11:35:54.624Z,57.78
2018-09-16T11:38:23.808Z,58.12
2018-09-16T11:40:53.001Z,58.81
2018-09-16T11:43:25.980Z,56.88
2018-09-16T11:45:56.032Z,57.45
2018-09-16T11:48:25.270Z,57.35
2018-09-16T11:51:00.868Z,57.42
2018-09-16T11:53:30.582Z,57.87
2018-09-16T11:56:00.361Z,56.77
2018-09-16T11:58:30.435Z,56.30
2018-09-16T12:01:02.890Z,57.04
2018-09-16T12:03:32.186Z,56.79
2018-09-16T12:06:02.501Z,58.51
2018-09-16T12:08:33.918Z,56.76
2018-09-16T12:11:03.216Z,56.71
2018-09-16T12:13:34.420Z,56.33
2018-09-16T12:16:05.589Z,56.33
2018-09-16T12:18:35.303Z,57.39
2018-09-16T12:21:05.850Z,57.97
2018-09-16T12:23:35.080Z,57.51
2018-09-16T12:26:05.047Z,57.77
2018-09-16T12:28:40.421Z,58.25
2018-09-16T12:31:09.678Z,57.77
2018-09-16T12:33:41.962Z,56.83
2018-09-16T12:36:12.032Z,56.33
2018-09-16T12:38:42.076Z,57.19
2018-09-16T12:41:11.284Z,56.26
2018-09-16T12:43:41.414Z,55.45
2018-09-16T12:46:10.680Z,56.45
2018-09-16T12:48:44.007Z,57.72
2018-09-16T12:51:13.074Z,56.80
2018-09-16T12:53:42.220Z,56.30
2018-09-16T12:56:11.316Z,56.18
2018-09-16T12:58:40.426Z,55.17
2018-09-16T13:01:09.555Z,57.21
2018-09-16T13:03:38.986Z,57.27
2018-09-16T13:06:09.115Z,55.18
2018-09-16T13:08:39.103Z,54.99
2018-09-16T13:11:09.218Z,57.89
2018-09-16T13:13:39.142Z,54.89
2018-09-16T13:16:09.245Z,59.13
2018-09-16T13:18:39.144Z,57.25
2018-09-16T13:21:09.263Z,57.73
2018-09-16T13:23:39.183Z,56.53
2018-09-16T13:26:09.313Z,54.99
2018-09-16T13:28:39.833Z,55.86
2018-09-16T13:31:09.272Z,55.69
2018-09-16T13:38:49.715Z,55.41
2018-09-16T13:41:18.969Z,56.30
2018-09-16T13:43:50.883Z,55.73
2018-09-16T13:46:21.916Z,54.56
2018-09-16T13:48:51.193Z,55.24
2018-09-16T13:51:20.659Z,54.68
2018-09-16T13:53:49.886Z,54.17
2018-09-16T13:56:19.209Z,55.07
2018-09-16T13:58:48.565Z,54.59
2018-09-16T14:01:17.735Z,52.72
2018-09-16T14:03:48.491Z,53.31
2018-09-16T14:06:21.396Z,53.93
2018-09-16T14:08:55.449Z,53.74
2018-09-16T14:11:24.812Z,52.58
2018-09-16T14:13:55.347Z,53.20
2018-09-16T14:16:26.290Z,53.06
2018-09-16T14:18:55.519Z,52.50
2018-09-16T14:21:25.776Z,52.64
2018-09-16T14:23:56.935Z,52.22
2018-09-16T14:26:27.339Z,51.99
2018-09-16T14:28:58.805Z,52.39
2018-09-16T14:31:30.280Z,53.04
2018-09-16T14:34:02.270Z,51.48
2018-09-16T14:36:32.524Z,51.37
2018-09-16T14:39:03.905Z,51.07
2018-09-16T14:41:39.645Z,50.72
2018-09-16T14:44:09.302Z,48.55
2018-09-16T14:46:39.857Z,49.96
2018-09-16T14:49:09.089Z,46.76
2018-09-16T14:51:39.542Z,47.90
2018-09-16T14:54:10.765Z,48.77
2018-09-16T14:56:40.627Z,49.41
2018-09-16T14:59:10.692Z,45.73
2018-09-16T15:01:41.410Z,47.68
2018-09-16T15:04:11.964Z,48.13
2018-09-16T15:06:46.159Z,48.64
2018-09-16T15:09:16.429Z,46.85
2018-09-16T15:11:46.088Z,48.90
2018-09-16T15:14:15.343Z,48.75
2018-09-16T15:16:45.053Z,48.94
2018-09-16T15:19:22.108Z,49.73
2018-09-16T15:21:54.644Z,49.05
2018-09-16T15:29:42.327Z,49.87
2018-09-16T15:32:14.574Z,49.53
2018-09-16T15:34:44.130Z,49.70
2018-09-16T15:37:15.795Z,51.49
2018-09-16T15:39:46.402Z,52.18
2018-09-16T15:42:15.584Z,52.00
2018-09-16T15:44:45.189Z,52.73
2018-09-16T15:47:16.530Z,52.01
2018-09-16T15:49:46.048Z,53.27
2018-09-16T15:52:15.483Z,53.28
2018-09-16T15:54:47.759Z,53.69
2018-09-16T15:57:17.018Z,54.15
2018-09-16T15:59:46.551Z,54.45
2018-09-16T16:02:15.735Z,54.71
2018-09-16T16:04:46.599Z,54.25
2018-09-16T16:07:15.759Z,54.75
2018-09-16T16:09:47.963Z,54.86
2018-09-16T16:12:19.461Z,55.61
2018-09-16T16:14:49.004Z,55.59
2018-09-16T16:17:18.290Z,55.97
2018-09-16T16:19:48.004Z,56.35
2018-09-16T16:22:17.182Z,56.39
2018-09-16T16:24:46.796Z,56.90
2018-09-16T16:27:16.076Z,57.70
2018-09-16T16:29:45.617Z,57.65
2018-09-16T16:32:14.839Z,58.25
2018-09-16T16:34:44.377Z,58.89
2018-09-16T16:37:13.711Z,59.30
2018-09-16T16:39:44.882Z,59.61
2018-09-16T16:42:14.127Z,59.91
2018-09-16T16:44:43.698Z,60.08
2018-09-16T16:47:13.156Z,60.61
2018-09-16T16:49:42.662Z,60.11
2018-09-16T16:52:12.410Z,61.05
2018-09-16T16:54:42.344Z,61.19
2018-09-16T16:57:12.536Z,61.15
2018-09-16T16:59:42.419Z,61.32
2018-09-16T17:02:12.054Z,62.58
2018-09-16T17:04:42.655Z,61.83
2018-09-16T17:07:12.167Z,62.78
2018-09-16T17:09:42.530Z,63.38
2018-09-16T17:12:12.457Z,63.42
2018-09-16T17:14:44.372Z,63.38
2018-09-16T17:17:13.763Z,63.88
2018-09-16T17:19:43.381Z,63.56
2018-09-16T17:22:12.667Z,64.17
2018-09-16T17:24:42.693Z,64.26
2018-09-16T17:27:13.571Z,65.02
2018-09-16T17:29:43.241Z,65.14
2018-09-16T17:32:12.826Z,65.31
2018-09-16T17:34:43.905Z,64.87
2018-09-16T17:37:13.821Z,65.62
2018-09-16T17:39:44.027Z,65.53
2018-09-16T17:42:13.410Z,65.90
2018-09-16T17:44:44.861Z,67.09
2018-09-16T17:47:14.129Z,67.49
2018-09-16T17:49:44.833Z,67.64
2018-09-16T17:52:15.321Z,68.18
2018-09-16T17:54:45.833Z,68.63
2018-09-16T17:57:15.596Z,68.56
2018-09-16T17:59:46.306Z,69.57
2018-09-16T18:02:15.762Z,69.74
2018-09-16T18:04:47.749Z,70.32
2018-09-16T18:07:17.606Z,70.83
2018-09-16T18:09:48.036Z,71.87
2018-09-16T18:15:20.959Z,72.27
2018-09-16T18:17:50.900Z,72.84
2018-09-16T18:20:20.580Z,74.14
2018-09-16T18:22:50.566Z,74.56
2018-09-16T18:25:20.495Z,74.92
2018-09-16T18:27:50.224Z,74.71
2018-09-16T18:30:20.098Z,75.64
2018-09-16T18:32:50.131Z,75.01
2018-09-16T18:35:20.191Z,75.30
2018-09-16T18:37:49.821Z,75.73
2018-09-16T18:40:21.531Z,76.00
2018-09-16T18:42:53.874Z,76.73
2018-09-16T18:45:23.610Z,76.95
2018-09-16T18:47:53.719Z,76.02
2018-09-16T18:50:23.510Z,76.24
2018-09-16T18:52:54.519Z,77.36
2018-09-16T18:55:24.484Z,77.25
2018-09-16T18:57:54.743Z,77.62
2018-09-16T19:00:24.538Z,78.09
2018-09-16T19:02:54.542Z,78.82
2018-09-16T19:05:24.846Z,79.41
2018-09-16T19:07:55.895Z,79.38
2018-09-16T19:10:25.865Z,79.51
2018-09-16T19:12:55.956Z,80.20
2018-09-16T19:15:26.115Z,79.96
2018-09-16T19:17:59.806Z,80.02
2018-09-16T19:20:29.649Z,80.35
2018-09-16T19:23:00.118Z,80.61
2018-09-16T19:25:30.096Z,80.55
2018-09-16T19:28:00.289Z,80.94
2018-09-16T19:30:30.299Z,81.18
2018-09-16T19:33:00.069Z,81.74
2018-09-16T19:35:29.876Z,81.76
2018-09-16T19:37:59.619Z,82.25
2018-09-16T19:40:29.350Z,82.13
2018-09-16T19:42:59.088Z,82.21
2018-09-16T19:45:28.751Z,81.84
2018-09-16T19:47:58.452Z,82.33
2018-09-16T19:50:30.813Z,82.78
2018-09-16T19:53:01.676Z,83.36
2018-09-16T19:55:32.348Z,83.56
2018-09-16T19:58:02.101Z,83.54
2018-09-16T20:00:33.512Z,83.85
2018-09-16T20:03:04.921Z,84.01
2018-09-16T20:05:42.397Z,84.52
2018-09-16T20:08:12.354Z,84.29
2018-09-16T20:10:43.930Z,84.24
2018-09-16T20:13:14.497Z,84.93
2018-09-16T20:15:44.806Z,85.18
2018-09-16T20:18:14.862Z,84.72
2018-09-16T20:20:47.361Z,85.22
2018-09-16T20:23:16.956Z,85.14
2018-09-16T20:25:46.668Z,84.96
2018-09-16T20:28:16.104Z,85.00
2018-09-16T20:43:45.428Z,85.26
2018-09-16T20:46:14.632Z,85.97
2018-09-16T20:48:46.157Z,86.19
2018-09-16T20:51:15.356Z,86.61
2018-09-16T20:53:47.018Z,87.15
2018-09-16T20:56:16.280Z,87.08
2018-09-16T20:58:46.100Z,86.96
2018-09-16T21:01:17.037Z,86.81
2018-09-16T21:03:46.829Z,86.77
2018-09-16T21:06:16.092Z,87.05
2018-09-16T21:08:49.866Z,87.31
2018-09-16T21:11:20.646Z,86.83
2018-09-16T21:13:50.192Z,86.73
2018-09-16T21:16:20.189Z,86.59
2018-09-16T21:18:49.394Z,86.49
2018-09-16T21:21:18.532Z,86.97
2018-09-16T21:23:47.658Z,87.19
2018-09-16T21:26:16.935Z,87.03
2018-09-16T21:28:48.104Z,86.89
2018-09-16T21:31:17.274Z,86.38
2018-09-16T21:33:46.869Z,86.13
2018-09-16T21:36:16.037Z,86.35
2018-09-16T21:38:45.551Z,85.86
2018-09-16T21:41:15.133Z,85.61
2018-09-16T21:43:46.178Z,86.04
2018-09-16T21:46:15.534Z,86.47
2018-09-16T21:48:46.289Z,86.72
2018-09-16T21:51:15.457Z,86.20
2018-09-16T21:53:45.645Z,86.76
2018-09-16T21:56:15.247Z,86.13
2018-09-16T21:58:46.214Z,86.53
2018-09-16T22:01:15.353Z,86.08
2018-09-16T22:03:45.677Z,87.16
2018-09-16T22:06:15.693Z,87.28
2018-09-16T22:08:45.898Z,86.65
2018-09-16T22:11:15.356Z,86.89
2018-09-16T22:13:45.830Z,87.25
2018-09-16T22:16:15.478Z,86.84
2018-09-16T22:18:46.918Z,87.00
2018-09-16T22:21:16.898Z,86.59
2018-09-16T22:23:46.486Z,86.84
2018-09-16T22:26:15.932Z,87.75
2018-09-16T22:28:45.823Z,87.21
2018-09-16T22:31:16.706Z,87.75
2018-09-16T22:33:47.453Z,88.28
2018-09-16T22:36:16.905Z,88.54
2018-09-16T22:38:46.458Z,88.79
2018-09-16T22:41:16.988Z,89.22
2018-09-16T22:43:47.644Z,89.79
2018-09-16T22:46:16.806Z,90.49
2018-09-16T22:48:46.126Z,90.69
2018-09-16T22:51:16.030Z,90.88
2018-09-16T22:53:47.045Z,91.30
2018-09-16T22:56:16.286Z,92.01
2018-09-16T22:58:46.486Z,92.75
2018-09-16T23:01:17.975Z,93.37
2018-09-16T23:03:47.459Z,93.79
2018-09-16T23:06:17.146Z,94.25
2018-09-16T23:08:53.149Z,94.87
2018-09-16T23:11:22.496Z,95.10
2018-09-16T23:13:52.360Z,95.26
2018-09-16T23:16:21.549Z,95.88
2018-09-16T23:18:51.253Z,96.17
2018-09-16T23:21:20.454Z,96.07
2018-09-16T23:23:50.345Z,96.46
2018-09-16T23:26:20.312Z,96.05
2018-09-16T23:28:51.666Z,96.00
2018-09-16T23:31:20.817Z,96.20
2018-09-16T23:33:50.324Z,96.68
2018-09-16T23:36:19.517Z,96.35
2018-09-16T23:38:50.472Z,96.39
2018-09-16T23:41:21.293Z,96.08
2018-09-16T23:43:50.748Z,97.15
2018-09-16T23:46:19.908Z,97.07
2018-09-16T23:48:52.168Z,96.85
2018-09-16T23:51:21.392Z,97.02
2018-09-16T23:53:50.562Z,96.61
2018-09-16T23:56:19.731Z,96.73
2018-09-16T23:58:49.290Z,96.49
